createdAt,value
2017-11-26T00:00:35.401Z,1011.38
2017-11-26T00:01:35.415Z,1011.39
2017-11-26T00:02:35.436Z,1011.43
2017-11-26T00:03:35.457Z,1011.44
2017-11-26T00:04:35.464Z,1011.43
2017-11-26T00:05:35.470Z,1011.44
2017-11-26T00:06:35.488Z,1011.45
2017-11-26T00:07:35.499Z,1011.44
2017-11-26T00:08:35.516Z,1011.42
2017-11-26T00:09:35.539Z,1011.42
2017-11-26T00:10:35.545Z,1011.49
2017-11-26T00:11:35.558Z,1011.51
2017-11-26T00:12:35.576Z,1011.51
2017-11-26T00:13:35.590Z,1011.50
2017-11-26T00:14:35.603Z,1011.59
2017-11-26T00:15:35.618Z,1011.55
2017-11-26T00:16:35.633Z,1011.60
2017-11-26T00:17:35.647Z,1011.63
2017-11-26T00:18:35.665Z,1011.65
2017-11-26T00:19:35.675Z,1011.66
2017-11-26T00:20:35.692Z,1011.68
2017-11-26T00:21:35.705Z,1011.72
2017-11-26T00:22:35.716Z,1011.68
2017-11-26T00:23:35.733Z,1011.73
2017-11-26T00:24:35.752Z,1011.72
2017-11-26T00:25:35.764Z,1011.72
2017-11-26T00:26:35.778Z,1011.76
2017-11-26T00:27:35.802Z,1011.74
2017-11-26T00:28:35.808Z,1011.70
2017-11-26T00:29:35.823Z,1011.72
2017-11-26T00:30:35.839Z,1011.73
2017-11-26T00:31:35.862Z,1011.69
2017-11-26T00:32:35.866Z,1011.66
2017-11-26T00:33:35.876Z,1011.65
2017-11-26T00:34:35.895Z,1011.68
2017-11-26T00:35:35.906Z,1011.72
2017-11-26T00:36:35.924Z,1011.72
2017-11-26T00:37:35.938Z,1011.70
2017-11-26T00:38:35.954Z,1011.68
2017-11-26T00:39:35.967Z,1011.66
2017-11-26T00:40:35.981Z,1011.71
2017-11-26T00:41:35.997Z,1011.70
2017-11-26T00:42:36.010Z,1011.65
2017-11-26T00:43:36.024Z,1011.71
2017-11-26T00:44:36.041Z,1011.69
2017-11-26T00:45:36.057Z,1011.65
2017-11-26T00:46:36.066Z,1011.71
2017-11-26T00:47:36.081Z,1011.72
2017-11-26T00:48:36.095Z,1011.73
2017-11-26T00:49:36.109Z,1011.76
2017-11-26T00:50:36.121Z,1011.79
2017-11-26T00:51:36.142Z,1011.77
2017-11-26T00:52:36.154Z,1011.83
2017-11-26T00:53:36.171Z,1011.80
2017-11-26T00:54:36.186Z,1011.80
2017-11-26T00:55:36.199Z,1011.84
2017-11-26T00:56:36.214Z,1011.78
2017-11-26T00:57:36.229Z,1011.78
2017-11-26T00:58:36.244Z,1011.87
2017-11-26T00:59:36.271Z,1011.87
2017-11-26T01:00:36.270Z,1011.80
2017-11-26T01:01:36.285Z,1011.84
2017-11-26T01:02:36.299Z,1011.84
2017-11-26T01:03:36.315Z,1011.81
2017-11-26T01:04:36.323Z,1011.89
2017-11-26T01:05:36.344Z,1011.91
2017-11-26T01:06:36.353Z,1011.87
2017-11-26T01:07:36.373Z,1011.87
2017-11-26T01:08:36.397Z,1011.87
2017-11-26T01:09:36.404Z,1011.82
2017-11-26T01:10:36.419Z,1011.82
2017-11-26T01:11:36.433Z,1011.84
2017-11-26T01:12:36.455Z,1011.84
2017-11-26T01:13:36.477Z,1011.90
2017-11-26T01:14:36.478Z,1011.87
2017-11-26T01:15:36.491Z,1011.88
2017-11-26T01:16:36.506Z,1011.89
2017-11-26T01:17:36.518Z,1011.88
2017-11-26T01:18:36.537Z,1011.87
2017-11-26T01:19:36.552Z,1011.88
2017-11-26T01:20:36.568Z,1011.89
2017-11-26T01:21:36.583Z,1011.90
2017-11-26T01:22:36.604Z,1011.90
2017-11-26T01:23:36.610Z,1011.92
2017-11-26T01:24:36.626Z,1011.93
2017-11-26T01:25:36.650Z,1011.94
2017-11-26T01:26:36.664Z,1011.88
2017-11-26T01:27:36.682Z,1011.91
2017-11-26T01:28:36.688Z,1011.88
2017-11-26T01:29:36.700Z,1011.84
2017-11-26T01:30:36.715Z,1011.85
2017-11-26T01:31:36.724Z,1011.84
2017-11-26T01:32:36.745Z,1011.84
2017-11-26T01:33:36.754Z,1011.84
2017-11-26T01:34:36.774Z,1011.84
2017-11-26T01:35:36.791Z,1011.84
2017-11-26T01:36:36.803Z,1011.85
2017-11-26T01:37:36.820Z,1011.89
2017-11-26T01:38:36.846Z,1011.92
2017-11-26T01:39:36.853Z,1011.87
2017-11-26T01:40:36.866Z,1011.86
2017-11-26T01:41:36.884Z,1011.86
2017-11-26T01:42:36.892Z,1011.91
2017-11-26T01:43:36.906Z,1011.94
2017-11-26T01:44:36.924Z,1011.94
2017-11-26T01:45:36.940Z,1011.92
2017-11-26T01:46:36.951Z,1011.88
2017-11-26T01:47:36.966Z,1011.89
2017-11-26T01:48:36.984Z,1011.93
2017-11-26T01:49:36.999Z,1011.91
2017-11-26T01:50:37.013Z,1011.91
2017-11-26T01:51:37.028Z,1011.96
2017-11-26T01:52:37.050Z,1011.93
2017-11-26T01:53:37.055Z,1011.94
2017-11-26T01:54:37.076Z,1011.90
2017-11-26T01:55:37.087Z,1011.90
2017-11-26T01:56:37.099Z,1011.89
2017-11-26T01:57:37.112Z,1011.91
2017-11-26T01:58:37.196Z,1011.92
2017-11-26T01:59:37.145Z,1011.89
2017-11-26T02:00:37.160Z,1011.86
2017-11-26T02:01:37.176Z,1011.92
2017-11-26T02:02:37.190Z,1011.85
2017-11-26T02:03:37.204Z,1011.89
2017-11-26T02:04:37.219Z,1011.87
2017-11-26T02:05:37.240Z,1011.93
2017-11-26T02:06:37.243Z,1011.91
2017-11-26T02:07:37.260Z,1011.95
2017-11-26T02:08:37.277Z,1012.00
2017-11-26T02:09:37.293Z,1012.03
2017-11-26T02:10:37.306Z,1012.00
2017-11-26T02:11:37.317Z,1012.04
2017-11-26T02:12:37.338Z,1012.06
2017-11-26T02:13:37.349Z,1012.03
2017-11-26T02:14:37.365Z,1012.06
2017-11-26T02:15:37.382Z,1012.05
2017-11-26T02:16:37.390Z,1012.04
2017-11-26T02:17:37.404Z,1012.04
2017-11-26T02:18:37.427Z,1012.05
2017-11-26T02:19:37.435Z,1012.05
2017-11-26T02:20:37.458Z,1012.11
2017-11-26T02:21:37.470Z,1012.06
2017-11-26T02:22:37.481Z,1012.08
2017-11-26T02:23:37.489Z,1012.07
2017-11-26T02:24:37.510Z,1012.17
2017-11-26T02:25:37.524Z,1012.10
2017-11-26T02:26:37.539Z,1012.10
2017-11-26T02:27:37.553Z,1012.12
2017-11-26T02:28:37.567Z,1012.04
2017-11-26T02:29:37.579Z,1012.05
2017-11-26T02:30:37.602Z,1012.05
2017-11-26T02:31:37.610Z,1012.04
2017-11-26T02:32:37.631Z,1012.03
2017-11-26T02:33:37.639Z,1012.05
2017-11-26T02:34:37.662Z,1012.01
2017-11-26T02:35:37.669Z,1012.06
2017-11-26T02:36:37.677Z,1012.06
2017-11-26T02:37:37.694Z,1012.08
2017-11-26T02:38:37.715Z,1012.13
2017-11-26T02:39:37.732Z,1012.08
2017-11-26T02:40:37.737Z,1012.13
2017-11-26T02:41:37.757Z,1012.14
2017-11-26T02:42:37.769Z,1012.06
2017-11-26T02:43:37.783Z,1012.06
2017-11-26T02:44:37.798Z,1012.07
2017-11-26T02:45:37.808Z,1012.13
2017-11-26T02:46:37.827Z,1012.12
2017-11-26T02:47:37.840Z,1012.10
2017-11-26T02:48:37.863Z,1012.14
2017-11-26T02:49:37.871Z,1012.10
2017-11-26T02:50:37.888Z,1012.11
2017-11-26T02:51:37.896Z,1012.09
2017-11-26T02:52:37.914Z,1012.05
2017-11-26T02:53:37.935Z,1012.09
2017-11-26T02:54:37.947Z,1012.15
2017-11-26T02:55:37.958Z,1012.13
2017-11-26T02:56:37.974Z,1012.18
2017-11-26T02:57:37.984Z,1012.19
2017-11-26T02:58:37.997Z,1012.16
2017-11-26T02:59:38.059Z,1012.13
2017-11-26T03:00:38.031Z,1012.14
2017-11-26T03:01:38.039Z,1012.15
2017-11-26T03:02:38.051Z,1012.10
2017-11-26T03:03:38.077Z,1012.08
2017-11-26T03:04:38.086Z,1012.12
2017-11-26T03:05:38.102Z,1012.11
2017-11-26T03:06:38.118Z,1012.09
2017-11-26T03:07:38.135Z,1012.14
2017-11-26T03:08:38.140Z,1012.16
2017-11-26T03:09:38.156Z,1012.24
2017-11-26T03:10:38.174Z,1012.16
2017-11-26T03:11:38.185Z,1012.22
2017-11-26T03:12:38.201Z,1012.20
2017-11-26T03:13:38.217Z,1012.21
2017-11-26T03:14:38.235Z,1012.19
2017-11-26T03:15:38.244Z,1012.18
2017-11-26T03:16:38.262Z,1012.17
2017-11-26T03:17:38.276Z,1012.19
2017-11-26T03:18:38.296Z,1012.13
2017-11-26T03:19:38.302Z,1012.16
2017-11-26T03:20:38.319Z,1012.12
2017-11-26T03:21:38.338Z,1012.16
2017-11-26T03:22:38.345Z,1012.20
2017-11-26T03:23:38.359Z,1012.25
2017-11-26T03:24:38.376Z,1012.20
2017-11-26T03:25:38.388Z,1012.27
2017-11-26T03:26:38.401Z,1012.23
2017-11-26T03:27:38.418Z,1012.25
2017-11-26T03:28:38.425Z,1012.24
2017-11-26T03:29:38.454Z,1012.27
2017-11-26T03:30:38.465Z,1012.27
2017-11-26T03:31:38.477Z,1012.25
2017-11-26T03:32:38.489Z,1012.23
2017-11-26T03:33:38.504Z,1012.22
2017-11-26T03:34:38.521Z,1012.29
2017-11-26T03:35:38.533Z,1012.31
2017-11-26T03:36:38.552Z,1012.30
2017-11-26T03:37:38.572Z,1012.24
2017-11-26T03:38:38.585Z,1012.23
2017-11-26T03:39:38.590Z,1012.26
2017-11-26T03:40:38.605Z,1012.22
2017-11-26T03:41:38.619Z,1012.17
2017-11-26T03:42:38.645Z,1012.19
2017-11-26T03:43:38.648Z,1012.17
2017-11-26T03:44:38.663Z,1012.17
2017-11-26T03:45:38.678Z,1012.19
2017-11-26T03:46:38.698Z,1012.20
2017-11-26T03:47:38.701Z,1012.22
2017-11-26T03:48:38.722Z,1012.23
2017-11-26T03:49:38.740Z,1012.23
2017-11-26T03:50:38.749Z,1012.20
2017-11-26T03:51:38.762Z,1012.22
2017-11-26T03:52:38.781Z,1012.19
2017-11-26T03:53:38.804Z,1012.23
2017-11-26T03:54:38.807Z,1012.16
2017-11-26T03:55:38.814Z,1012.20
2017-11-26T03:56:38.836Z,1012.26
2017-11-26T03:57:38.855Z,1012.21
2017-11-26T03:58:38.866Z,1012.26
2017-11-26T03:59:38.891Z,1012.26
2017-11-26T04:00:38.898Z,1012.27
2017-11-26T04:01:38.907Z,1012.26
2017-11-26T04:02:38.921Z,1012.32
2017-11-26T04:03:38.942Z,1012.31
2017-11-26T04:04:38.948Z,1012.31
2017-11-26T04:05:38.970Z,1012.29
2017-11-26T04:06:38.981Z,1012.27
2017-11-26T04:07:38.994Z,1012.26
2017-11-26T04:08:39.007Z,1012.24
2017-11-26T04:09:39.021Z,1012.22
2017-11-26T04:10:39.035Z,1012.25
2017-11-26T04:11:39.045Z,1012.24
2017-11-26T04:12:39.064Z,1012.25
2017-11-26T04:13:39.084Z,1012.20
2017-11-26T04:14:39.099Z,1012.24
2017-11-26T04:15:39.104Z,1012.26
2017-11-26T04:16:39.122Z,1012.24
2017-11-26T04:17:39.136Z,1012.28
2017-11-26T04:18:39.153Z,1012.29
2017-11-26T04:19:39.162Z,1012.20
2017-11-26T04:20:39.180Z,1012.20
2017-11-26T04:21:39.196Z,1012.23
2017-11-26T04:22:39.206Z,1012.21
2017-11-26T04:23:39.221Z,1012.19
2017-11-26T04:24:39.237Z,1012.19
2017-11-26T04:25:39.248Z,1012.17
2017-11-26T04:26:39.268Z,1012.14
2017-11-26T04:27:39.280Z,1012.16
2017-11-26T04:28:39.292Z,1012.14
2017-11-26T04:29:39.306Z,1012.16
2017-11-26T04:30:39.322Z,1012.17
2017-11-26T04:31:39.337Z,1012.21
2017-11-26T04:32:39.352Z,1012.20
2017-11-26T04:33:39.363Z,1012.18
2017-11-26T04:34:39.388Z,1012.17
2017-11-26T04:35:39.393Z,1012.19
2017-11-26T04:36:39.405Z,1012.20
2017-11-26T04:37:39.431Z,1012.15
2017-11-26T04:38:39.443Z,1012.13
2017-11-26T04:39:39.450Z,1012.13
2017-11-26T04:40:39.461Z,1012.11
2017-11-26T04:41:39.481Z,1012.08
2017-11-26T04:42:39.502Z,1012.10
2017-11-26T04:43:39.510Z,1012.11
2017-11-26T04:44:39.520Z,1012.12
2017-11-26T04:45:39.542Z,1012.16
2017-11-26T04:46:39.556Z,1012.16
2017-11-26T04:47:39.563Z,1012.12
2017-11-26T04:48:39.584Z,1012.14
2017-11-26T04:49:39.601Z,1012.20
2017-11-26T04:50:39.611Z,1012.08
2017-11-26T04:51:39.623Z,1012.07
2017-11-26T04:52:39.641Z,1012.05
2017-11-26T04:53:39.652Z,1012.11
2017-11-26T04:54:39.668Z,1012.08
2017-11-26T04:55:39.681Z,1012.09
2017-11-26T04:56:39.727Z,1012.10
2017-11-26T04:57:39.706Z,1012.12
2017-11-26T04:58:39.727Z,1012.15
2017-11-26T04:59:39.739Z,1012.10
2017-11-26T05:00:39.752Z,1012.17
2017-11-26T05:01:39.774Z,1012.10
2017-11-26T05:02:39.783Z,1012.12
2017-11-26T05:03:39.800Z,1012.15
2017-11-26T05:04:39.811Z,1012.14
2017-11-26T05:05:39.827Z,1012.15
2017-11-26T05:06:39.845Z,1012.15
2017-11-26T05:07:39.853Z,1012.18
2017-11-26T05:08:39.867Z,1012.14
2017-11-26T05:09:39.880Z,1012.13
2017-11-26T05:10:39.893Z,1012.19
2017-11-26T05:11:39.918Z,1012.24
2017-11-26T05:12:39.925Z,1012.22
2017-11-26T05:13:39.938Z,1012.25
2017-11-26T05:14:39.956Z,1012.25
2017-11-26T05:15:39.969Z,1012.24
2017-11-26T05:16:39.988Z,1012.33
2017-11-26T05:17:39.995Z,1012.29
2017-11-26T05:18:40.020Z,1012.27
2017-11-26T05:19:40.024Z,1012.29
2017-11-26T05:20:40.044Z,1012.34
2017-11-26T05:21:40.052Z,1012.31
2017-11-26T05:22:40.084Z,1012.27
2017-11-26T05:23:40.082Z,1012.30
2017-11-26T05:24:40.099Z,1012.28
2017-11-26T05:25:40.114Z,1012.24
2017-11-26T05:26:40.128Z,1012.25
2017-11-26T05:27:40.142Z,1012.24
2017-11-26T05:28:40.156Z,1012.27
2017-11-26T05:29:40.175Z,1012.21
2017-11-26T05:30:40.186Z,1012.24
2017-11-26T05:31:40.198Z,1012.23
2017-11-26T05:32:40.214Z,1012.18
2017-11-26T05:33:40.232Z,1012.20
2017-11-26T05:34:40.247Z,1012.18
2017-11-26T05:35:40.258Z,1012.22
2017-11-26T05:36:40.278Z,1012.19
2017-11-26T05:37:40.287Z,1012.21
2017-11-26T05:38:40.301Z,1012.27
2017-11-26T05:39:40.312Z,1012.27
2017-11-26T05:40:40.329Z,1012.26
2017-11-26T05:41:40.352Z,1012.29
2017-11-26T05:42:40.362Z,1012.29
2017-11-26T05:43:40.370Z,1012.27
2017-11-26T05:44:40.389Z,1012.31
2017-11-26T05:45:40.402Z,1012.32
2017-11-26T05:46:40.414Z,1012.33
2017-11-26T05:47:40.437Z,1012.39
2017-11-26T05:48:40.444Z,1012.41
2017-11-26T05:49:40.463Z,1012.41
2017-11-26T05:50:40.485Z,1012.43
2017-11-26T05:51:40.488Z,1012.37
2017-11-26T05:52:40.497Z,1012.42
2017-11-26T05:53:40.515Z,1012.40
2017-11-26T05:54:40.525Z,1012.40
2017-11-26T05:55:40.543Z,1012.41
2017-11-26T05:56:40.560Z,1012.39
2017-11-26T05:57:40.583Z,1012.41
2017-11-26T05:58:40.589Z,1012.38
2017-11-26T05:59:40.601Z,1012.38
2017-11-26T06:00:40.612Z,1012.40
2017-11-26T06:01:40.631Z,1012.43
2017-11-26T06:02:40.651Z,1012.42
2017-11-26T06:03:40.658Z,1012.40
2017-11-26T06:04:40.675Z,1012.39
2017-11-26T06:05:40.688Z,1012.46
2017-11-26T06:06:40.698Z,1012.42
2017-11-26T06:07:40.713Z,1012.49
2017-11-26T06:08:40.729Z,1012.48
2017-11-26T06:09:40.748Z,1012.46
2017-11-26T06:10:40.758Z,1012.49
2017-11-26T06:11:40.773Z,1012.38
2017-11-26T06:12:40.792Z,1012.42
2017-11-26T06:13:40.804Z,1012.45
2017-11-26T06:14:40.818Z,1012.50
2017-11-26T06:15:40.847Z,1012.51
2017-11-26T06:16:40.858Z,1012.49
2017-11-26T06:17:40.861Z,1012.51
2017-11-26T06:18:40.876Z,1012.50
2017-11-26T06:19:40.888Z,1012.45
2017-11-26T06:20:40.904Z,1012.47
2017-11-26T06:21:40.915Z,1012.48
2017-11-26T06:22:40.936Z,1012.47
2017-11-26T06:23:40.948Z,1012.54
2017-11-26T06:24:40.964Z,1012.52
2017-11-26T06:25:40.979Z,1012.55
2017-11-26T06:26:40.992Z,1012.53
2017-11-26T06:27:41.003Z,1012.55
2017-11-26T06:28:41.032Z,1012.54
2017-11-26T06:29:41.038Z,1012.51
2017-11-26T06:30:41.051Z,1012.50
2017-11-26T06:31:41.064Z,1012.48
2017-11-26T06:32:41.078Z,1012.44
2017-11-26T06:33:41.096Z,1012.47
2017-11-26T06:34:41.104Z,1012.41
2017-11-26T06:35:41.122Z,1012.41
2017-11-26T06:36:41.140Z,1012.45
2017-11-26T06:37:41.150Z,1012.42
2017-11-26T06:38:41.167Z,1012.45
2017-11-26T06:39:41.199Z,1012.45
2017-11-26T06:40:41.195Z,1012.40
2017-11-26T06:41:41.212Z,1012.41
2017-11-26T06:42:41.242Z,1012.43
2017-11-26T06:43:41.242Z,1012.48
2017-11-26T06:44:41.250Z,1012.48
2017-11-26T06:45:41.270Z,1012.43
2017-11-26T06:46:41.285Z,1012.52
2017-11-26T06:47:41.299Z,1012.45
2017-11-26T06:48:41.314Z,1012.47
2017-11-26T06:49:41.329Z,1012.48
2017-11-26T06:50:41.350Z,1012.54
2017-11-26T06:51:41.358Z,1012.59
2017-11-26T06:52:41.390Z,1012.59
2017-11-26T06:53:41.385Z,1012.56
2017-11-26T06:54:41.402Z,1012.56
2017-11-26T06:55:41.410Z,1012.57
2017-11-26T06:56:41.431Z,1012.62
2017-11-26T06:57:41.461Z,1012.56
2017-11-26T06:58:41.468Z,1012.65
2017-11-26T06:59:41.476Z,1012.69
2017-11-26T07:00:41.493Z,1012.71
2017-11-26T07:01:41.506Z,1012.77
2017-11-26T07:02:41.520Z,1012.69
2017-11-26T07:03:41.535Z,1012.72
2017-11-26T07:04:41.551Z,1012.73
2017-11-26T07:05:41.564Z,1012.75
2017-11-26T07:06:41.584Z,1012.74
2017-11-26T07:07:41.591Z,1012.80
2017-11-26T07:08:41.604Z,1012.84
2017-11-26T07:09:41.625Z,1012.81
2017-11-26T07:10:41.638Z,1012.84
2017-11-26T07:11:41.652Z,1012.93
2017-11-26T07:12:41.667Z,1012.83
2017-11-26T07:13:41.682Z,1012.95
2017-11-26T07:14:41.692Z,1012.90
2017-11-26T07:15:41.722Z,1012.93
2017-11-26T07:16:41.727Z,1012.95
2017-11-26T07:17:41.740Z,1012.96
2017-11-26T07:18:41.753Z,1012.91
2017-11-26T07:19:41.775Z,1012.87
2017-11-26T07:20:41.786Z,1012.87
2017-11-26T07:21:41.800Z,1012.94
2017-11-26T07:22:41.822Z,1012.97
2017-11-26T07:23:41.837Z,1012.96
2017-11-26T07:24:41.848Z,1012.95
2017-11-26T07:25:41.863Z,1013.00
2017-11-26T07:26:41.879Z,1013.01
2017-11-26T07:27:41.887Z,1013.02
2017-11-26T07:28:41.912Z,1013.01
2017-11-26T07:29:41.922Z,1013.02
2017-11-26T07:30:41.932Z,1013.05
2017-11-26T07:31:41.956Z,1013.02
2017-11-26T07:32:41.965Z,1013.06
2017-11-26T07:33:41.979Z,1013.03
2017-11-26T07:34:41.993Z,1013.00
2017-11-26T07:35:42.000Z,1013.09
2017-11-26T07:36:42.028Z,1013.11
2017-11-26T07:37:42.043Z,1013.14
2017-11-26T07:38:42.063Z,1013.12
2017-11-26T07:39:42.070Z,1013.13
2017-11-26T07:40:42.079Z,1013.18
2017-11-26T07:41:42.099Z,1013.19
2017-11-26T07:42:42.115Z,1013.17
2017-11-26T07:43:42.128Z,1013.21
2017-11-26T07:44:42.141Z,1013.22
2017-11-26T07:45:42.164Z,1013.25
2017-11-26T07:46:42.172Z,1013.25
2017-11-26T07:47:42.188Z,1013.22
2017-11-26T07:48:42.229Z,1013.22
2017-11-26T07:49:42.225Z,1013.27
2017-11-26T07:50:42.230Z,1013.20
2017-11-26T07:51:42.248Z,1013.23
2017-11-26T07:52:42.269Z,1013.23
2017-11-26T07:53:42.278Z,1013.29
2017-11-26T07:54:42.294Z,1013.28
2017-11-26T07:55:42.308Z,1013.30
2017-11-26T07:56:42.325Z,1013.32
2017-11-26T07:57:42.339Z,1013.35
2017-11-26T07:58:42.354Z,1013.33
2017-11-26T07:59:42.365Z,1013.33
2017-11-26T08:00:42.385Z,1013.31
2017-11-26T08:01:42.395Z,1013.35
2017-11-26T08:02:42.412Z,1013.37
2017-11-26T08:03:42.425Z,1013.39
2017-11-26T08:04:42.451Z,1013.34
2017-11-26T08:05:42.463Z,1013.35
2017-11-26T08:06:42.469Z,1013.37
2017-11-26T08:07:42.487Z,1013.36
2017-11-26T08:08:42.495Z,1013.42
2017-11-26T08:09:42.515Z,1013.43
2017-11-26T08:10:42.530Z,1013.49
2017-11-26T08:11:42.545Z,1013.46
2017-11-26T08:12:42.558Z,1013.50
2017-11-26T08:13:42.575Z,1013.52
2017-11-26T08:14:42.592Z,1013.49
2017-11-26T08:15:42.605Z,1013.51
2017-11-26T08:16:42.626Z,1013.50
2017-11-26T08:17:42.638Z,1013.49
2017-11-26T08:18:42.649Z,1013.54
2017-11-26T08:19:42.681Z,1013.49
2017-11-26T08:20:42.682Z,1013.46
2017-11-26T08:21:42.695Z,1013.50
2017-11-26T08:22:42.709Z,1013.51
2017-11-26T08:23:42.723Z,1013.56
2017-11-26T08:24:42.741Z,1013.52
2017-11-26T08:25:42.764Z,1013.53
2017-11-26T08:26:42.770Z,1013.63
2017-11-26T08:27:42.789Z,1013.54
2017-11-26T08:28:42.799Z,1013.59
2017-11-26T08:29:42.817Z,1013.56
2017-11-26T08:30:42.832Z,1013.55
2017-11-26T08:31:42.850Z,1013.57
2017-11-26T08:32:42.863Z,1013.54
2017-11-26T08:33:42.876Z,1013.54
2017-11-26T08:34:42.896Z,1013.56
2017-11-26T08:35:42.906Z,1013.56
2017-11-26T08:36:42.920Z,1013.60
2017-11-26T08:37:42.936Z,1013.62
2017-11-26T08:38:42.952Z,1013.67
2017-11-26T08:39:42.970Z,1013.68
2017-11-26T08:40:42.985Z,1013.72
2017-11-26T08:41:42.999Z,1013.72
2017-11-26T08:42:43.008Z,1013.69
2017-11-26T08:43:43.029Z,1013.73
2017-11-26T08:44:43.035Z,1013.68
2017-11-26T08:45:43.064Z,1013.69
2017-11-26T08:46:43.074Z,1013.69
2017-11-26T08:47:43.089Z,1013.68
2017-11-26T08:48:43.105Z,1013.69
2017-11-26T08:49:43.121Z,1013.70
2017-11-26T08:50:43.131Z,1013.72
2017-11-26T08:51:43.151Z,1013.73
2017-11-26T08:52:43.167Z,1013.77
2017-11-26T08:53:43.182Z,1013.80
2017-11-26T08:54:43.192Z,1013.80
2017-11-26T08:55:43.217Z,1013.82
2017-11-26T08:56:43.227Z,1013.77
2017-11-26T08:57:43.245Z,1013.79
2017-11-26T08:58:43.255Z,1013.81
2017-11-26T08:59:43.271Z,1013.83
2017-11-26T09:00:43.282Z,1013.89
2017-11-26T09:01:43.303Z,1013.87
2017-11-26T09:02:43.317Z,1013.91
2017-11-26T09:03:43.333Z,1013.89
2017-11-26T09:04:43.347Z,1013.93
2017-11-26T09:05:43.364Z,1013.94
2017-11-26T09:06:43.379Z,1013.96
2017-11-26T09:07:43.395Z,1013.98
2017-11-26T09:08:43.409Z,1014.04
2017-11-26T09:09:43.432Z,1014.10
2017-11-26T09:10:43.441Z,1014.12
2017-11-26T09:11:43.454Z,1014.07
2017-11-26T09:12:43.471Z,1014.13
2017-11-26T09:13:43.485Z,1014.11
2017-11-26T09:14:43.502Z,1014.07
2017-11-26T09:15:43.516Z,1014.05
2017-11-26T09:16:43.531Z,1014.06
2017-11-26T09:17:43.544Z,1014.01
2017-11-26T09:18:43.561Z,1014.11
2017-11-26T09:19:43.577Z,1014.11
2017-11-26T09:20:43.593Z,1014.12
2017-11-26T09:21:43.607Z,1014.14
2017-11-26T09:22:43.616Z,1014.10
2017-11-26T09:23:43.643Z,1014.13
2017-11-26T09:24:43.654Z,1014.16
2017-11-26T09:25:43.665Z,1014.17
2017-11-26T09:26:43.691Z,1014.13
2017-11-26T09:27:43.692Z,1014.14
2017-11-26T09:28:43.715Z,1014.25
2017-11-26T09:29:43.736Z,1014.20
2017-11-26T09:30:43.745Z,1014.24
2017-11-26T09:31:43.769Z,1014.24
2017-11-26T09:32:43.899Z,1014.24
2017-11-26T09:33:43.793Z,1014.23
2017-11-26T09:34:43.812Z,1014.23
2017-11-26T09:35:43.825Z,1014.25
2017-11-26T09:36:43.834Z,1014.22
2017-11-26T09:37:43.857Z,1014.18
2017-11-26T09:38:43.877Z,1014.22
2017-11-26T09:39:43.884Z,1014.21
2017-11-26T09:40:43.903Z,1014.25
2017-11-26T09:41:43.917Z,1014.25
2017-11-26T09:42:43.930Z,1014.24
2017-11-26T09:43:43.951Z,1014.27
2017-11-26T09:44:43.965Z,1014.28
2017-11-26T09:45:43.974Z,1014.26
2017-11-26T09:46:44.005Z,1014.27
2017-11-26T09:47:44.010Z,1014.26
2017-11-26T09:48:44.026Z,1014.28
2017-11-26T09:49:44.047Z,1014.29
2017-11-26T09:50:44.065Z,1014.28
2017-11-26T09:51:44.086Z,1014.24
2017-11-26T09:52:44.095Z,1014.35
2017-11-26T09:53:44.104Z,1014.31
2017-11-26T09:54:44.123Z,1014.27
2017-11-26T09:55:44.139Z,1014.25
2017-11-26T09:56:44.152Z,1014.25
2017-11-26T09:57:44.188Z,1014.27
2017-11-26T09:58:44.196Z,1014.28
2017-11-26T09:59:44.201Z,1014.23
2017-11-26T10:00:44.217Z,1014.29
2017-11-26T10:01:44.232Z,1014.23
2017-11-26T10:02:44.249Z,1014.27
2017-11-26T10:03:44.263Z,1014.28
2017-11-26T10:04:44.274Z,1014.26
2017-11-26T10:05:44.299Z,1014.31
2017-11-26T10:06:44.309Z,1014.25
2017-11-26T10:07:44.325Z,1014.22
2017-11-26T10:08:44.380Z,1014.25
2017-11-26T10:09:44.353Z,1014.23
2017-11-26T10:10:44.375Z,1014.28
2017-11-26T10:11:44.396Z,1014.27
2017-11-26T10:12:44.411Z,1014.28
2017-11-26T10:13:44.422Z,1014.30
2017-11-26T10:14:44.435Z,1014.24
2017-11-26T10:15:44.453Z,1014.24
2017-11-26T10:16:44.468Z,1014.20
2017-11-26T10:17:44.485Z,1014.21
2017-11-26T10:18:44.538Z,1014.25
2017-11-26T10:19:44.520Z,1014.24
2017-11-26T10:20:44.530Z,1014.32
2017-11-26T10:21:44.549Z,1014.31
2017-11-26T10:22:44.571Z,1014.33
2017-11-26T10:23:44.584Z,1014.33
2017-11-26T10:24:44.596Z,1014.34
2017-11-26T10:25:44.619Z,1014.40
2017-11-26T10:26:44.631Z,1014.31
2017-11-26T10:27:44.653Z,1014.34
2017-11-26T10:28:44.654Z,1014.35
2017-11-26T10:29:44.674Z,1014.36
2017-11-26T10:30:44.695Z,1014.39
2017-11-26T10:31:44.721Z,1014.33
2017-11-26T10:32:44.724Z,1014.42
2017-11-26T10:33:44.743Z,1014.42
2017-11-26T10:34:44.761Z,1014.44
2017-11-26T10:35:44.770Z,1014.44
2017-11-26T10:36:44.806Z,1014.38
2017-11-26T10:37:44.804Z,1014.47
2017-11-26T10:38:44.909Z,1014.43
2017-11-26T10:39:44.837Z,1014.52
2017-11-26T10:40:44.852Z,1014.53
2017-11-26T10:41:44.870Z,1014.53
2017-11-26T10:42:44.884Z,1014.46
2017-11-26T10:43:44.898Z,1014.48
2017-11-26T10:44:44.926Z,1014.46
2017-11-26T10:45:44.937Z,1014.50
2017-11-26T10:46:44.953Z,1014.50
2017-11-26T10:47:44.970Z,1014.52
2017-11-26T10:48:44.989Z,1014.49
2017-11-26T10:49:44.998Z,1014.51
2017-11-26T10:50:45.023Z,1014.54
2017-11-26T10:51:45.035Z,1014.56
2017-11-26T10:52:45.046Z,1014.51
2017-11-26T10:53:45.066Z,1014.49
2017-11-26T10:54:45.077Z,1014.50
2017-11-26T10:55:45.092Z,1014.52
2017-11-26T10:56:45.116Z,1014.59
2017-11-26T10:57:45.131Z,1014.53
2017-11-26T10:58:45.151Z,1014.53
2017-11-26T10:59:45.222Z,1014.56
2017-11-26T11:00:45.186Z,1014.53
2017-11-26T11:01:45.193Z,1014.54
2017-11-26T11:02:45.210Z,1014.57
2017-11-26T11:03:45.224Z,1014.59
2017-11-26T11:04:45.243Z,1014.56
2017-11-26T11:05:45.257Z,1014.57
2017-11-26T11:06:45.274Z,1014.57
2017-11-26T11:07:45.354Z,1014.53
2017-11-26T11:08:45.315Z,1014.51
2017-11-26T11:09:45.323Z,1014.56
2017-11-26T11:10:45.345Z,1014.56
2017-11-26T11:11:45.355Z,1014.60
2017-11-26T11:12:45.373Z,1014.57
2017-11-26T11:13:45.392Z,1014.58
2017-11-26T11:14:45.400Z,1014.60
2017-11-26T11:15:45.434Z,1014.60
2017-11-26T11:16:45.436Z,1014.62
2017-11-26T11:17:45.453Z,1014.58
2017-11-26T11:18:45.469Z,1014.59
2017-11-26T11:19:45.487Z,1014.57
2017-11-26T11:20:45.512Z,1014.59
2017-11-26T11:21:45.526Z,1014.58
2017-11-26T11:22:45.536Z,1014.54
2017-11-26T11:23:45.546Z,1014.57
2017-11-26T11:24:45.570Z,1014.56
2017-11-26T11:25:45.585Z,1014.52
2017-11-26T11:26:45.601Z,1014.56
2017-11-26T11:27:45.620Z,1014.52
2017-11-26T11:28:45.631Z,1014.54
2017-11-26T11:29:45.649Z,1014.58
2017-11-26T11:30:45.666Z,1014.58
2017-11-26T11:31:45.681Z,1014.53
2017-11-26T11:32:45.700Z,1014.56
2017-11-26T11:33:45.714Z,1014.55
2017-11-26T11:34:45.733Z,1014.62
2017-11-26T11:35:45.750Z,1014.58
2017-11-26T11:36:45.764Z,1014.62
2017-11-26T11:37:45.781Z,1014.69
2017-11-26T11:38:45.796Z,1014.68
2017-11-26T11:39:45.807Z,1014.71
2017-11-26T11:40:45.827Z,1014.71
2017-11-26T11:41:45.846Z,1014.66
2017-11-26T11:42:45.874Z,1014.67
2017-11-26T11:43:45.884Z,1014.75
2017-11-26T11:44:45.892Z,1014.71
2017-11-26T11:45:45.914Z,1014.67
2017-11-26T11:46:45.933Z,1014.62
2017-11-26T11:47:45.947Z,1014.64
2017-11-26T11:48:45.961Z,1014.65
2017-11-26T11:49:45.977Z,1014.72
2017-11-26T11:50:45.995Z,1014.71
2017-11-26T11:51:46.014Z,1014.67
2017-11-26T11:52:46.028Z,1014.72
2017-11-26T11:53:46.050Z,1014.67
2017-11-26T11:54:46.064Z,1014.71
2017-11-26T11:55:46.080Z,1014.69
2017-11-26T11:56:46.097Z,1014.70
2017-11-26T11:57:46.119Z,1014.68
2017-11-26T11:58:46.130Z,1014.65
2017-11-26T11:59:46.147Z,1014.67
2017-11-26T12:00:46.164Z,1014.65
2017-11-26T12:01:46.181Z,1014.64
2017-11-26T12:02:46.209Z,1014.60
2017-11-26T12:03:46.222Z,1014.62
2017-11-26T12:04:46.239Z,1014.61
2017-11-26T12:05:46.254Z,1014.60